Time;durP1;ratioP1;P1;durP2;ratioP2;P2;SDS_P1;SDS_P2;PMS_P1;PMS_P2;Temp;Humidity;BMP_temperature;BMP_pressure;BME280_temperature;BME280_humidity;BME280_pressure;Samples;Min_cycle;Max_cycle;Signal;HPM_P1;HPM_P2
2022/09/08 00:01:34;;;;;;;4.03;2.00;;;6.80;99.90;;;;;;6154022;23;20025;-73
2022/09/08 00:04:04;;;;;;;3.85;2.15;;;6.80;99.90;;;;;;6103828;23;20021;-73
2022/09/08 00:06:32;;;;;;;3.30;1.80;;;6.80;99.90;;;;;;6102210;23;20025;-74
2022/09/08 00:09:00;;;;;;;4.47;1.77;;;6.80;99.90;;;;;;6153705;23;20032;-73
2022/09/08 00:11:30;;;;;;;4.97;1.60;;;6.80;99.90;;;;;;6127748;23;20541;-72
2022/09/08 00:14:02;;;;;;;2.10;1.85;;;6.80;99.90;;;;;;6127689;23;20021;-73
2022/09/08 00:16:30;;;;;;;3.00;1.48;;;6.80;99.90;;;;;;6152739;23;20414;-74
2022/09/08 00:18:59;;;;;;;2.63;1.40;;;6.80;99.90;;;;;;6154245;23;20021;-72
2022/09/08 00:21:28;;;;;;;5.05;1.52;;;6.70;99.90;;;;;;6153960;23;20070;-75
2022/09/08 00:23:56;;;;;;;2.53;1.40;;;6.70;99.90;;;;;;6153895;23;20515;-73
2022/09/08 00:26:23;;;;;;;5.05;1.60;;;6.70;99.90;;;;;;6126057;23;20035;-72
2022/09/08 00:28:51;;;;;;;1.10;0.80;;;6.70;99.90;;;;;;6127699;23;20451;-72
2022/09/08 00:31:19;;;;;;;3.15;1.33;;;6.70;99.90;;;;;;6153991;23;20112;-73
2022/09/08 00:33:47;;;;;;;2.33;0.90;;;6.70;99.90;;;;;;6127683;23;20026;-72
2022/09/08 00:36:16;;;;;;;7.63;1.08;;;6.60;99.90;;;;;;6151058;23;20458;-72
2022/09/08 00:38:47;;;;;;;3.95;1.30;;;6.60;99.90;;;;;;6153848;23;20028;-74
2022/09/08 00:41:15;;;;;;;4.55;1.10;;;6.60;99.90;;;;;;6153655;23;20105;-73
2022/09/08 00:43:46;;;;;;;1.00;0.90;;;6.60;99.90;;;;;;6101653;23;20117;-74
2022/09/08 00:46:26;;;;;;;3.67;1.05;;;6.60;99.90;;;;;;6126980;23;20025;-74
2022/09/08 00:49:00;;;;;;;5.53;1.35;;;6.60;99.90;;;;;;6153654;23;20021;-73
2022/09/08 00:51:31;;;;;;;2.05;1.50;;;6.60;99.90;;;;;;6153765;23;20022;-73
2022/09/08 00:53:59;;;;;;;8.82;1.30;;;6.60;99.90;;;;;;6152706;23;20021;-73
2022/09/08 00:56:29;;;;;;;5.13;1.77;;;6.60;99.90;;;;;;6152936;23;20029;-74
2022/09/08 00:58:57;;;;;;;3.40;1.73;;;6.60;99.90;;;;;;6150380;23;20068;-73
2022/09/08 01:01:24;;;;;;;6.38;2.00;;;6.50;99.90;;;;;;6152734;23;20026;-73
2022/09/08 01:03:52;;;;;;;7.45;2.38;;;6.50;99.90;;;;;;6151890;23;20025;-73
2022/09/08 01:15:11;;;;;;;9.18;3.13;;;6.50;99.90;;;;;;6126899;23;20028;-73
2022/09/08 01:17:39;;;;;;;9.18;3.53;;;6.50;99.90;;;;;;6126939;23;20021;-73
2022/09/08 01:20:09;;;;;;;8.65;3.38;;;6.50;99.90;;;;;;6154038;23;20021;-73
2022/09/08 01:23:21;;;;;;;10.80;4.13;;;6.40;99.90;;;;;;6152020;23;20025;-74
2022/09/08 01:26:25;;;;;;;11.25;4.55;;;6.40;99.90;;;;;;6103887;23;20026;-73
2022/09/08 01:28:59;;;;;;;13.73;4.57;;;6.40;99.90;;;;;;6071851;23;20021;-73
2022/09/08 01:31:27;;;;;;;15.38;4.82;;;6.40;99.90;;;;;;6151540;23;20343;-72
2022/09/08 01:33:54;;;;;;;18.02;6.13;;;6.30;99.90;;;;;;6153069;23;20029;-73
2022/09/08 01:36:22;;;;;;;15.80;5.28;;;6.30;99.90;;;;;;6151606;23;20021;-72
2022/09/08 01:38:49;;;;;;;14.93;5.70;;;6.30;99.90;;;;;;6153770;23;20022;-72
2022/09/08 01:41:16;;;;;;;13.48;6.30;;;6.30;99.90;;;;;;6100795;23;20422;-72
2022/09/08 01:43:43;;;;;;;16.30;6.35;;;6.30;99.90;;;;;;6153203;23;20030;-73
2022/09/08 01:46:12;;;;;;;16.52;6.07;;;6.30;99.90;;;;;;6126186;23;20032;-72
2022/09/08 01:48:39;;;;;;;18.20;6.65;;;6.30;99.90;;;;;;6151797;23;20025;-73
2022/09/08 01:51:08;;;;;;;13.98;5.85;;;6.30;99.90;;;;;;6126599;23;20104;-72
2022/09/08 01:53:36;;;;;;;11.15;5.25;;;6.30;99.90;;;;;;6151603;23;20025;-73
2022/09/08 01:56:05;;;;;;;11.02;5.40;;;6.20;99.90;;;;;;6153100;23;20021;-73
2022/09/08 01:58:32;;;;;;;8.63;4.00;;;6.20;99.90;;;;;;6151315;23;20305;-72
2022/09/08 02:01:00;;;;;;;8.02;3.72;;;6.20;99.90;;;;;;6126879;23;20021;-73
2022/09/08 02:03:29;;;;;;;12.02;4.35;;;6.20;99.90;;;;;;6150812;23;20317;-73
2022/09/08 02:06:02;;;;;;;7.05;3.33;;;6.20;99.90;;;;;;6152948;23;20439;-73
2022/09/08 02:08:30;;;;;;;5.93;3.58;;;6.20;99.90;;;;;;6150486;23;20351;-73
2022/09/08 02:11:00;;;;;;;9.18;3.22;;;6.20;99.90;;;;;;6153018;23;20403;-73
2022/09/08 02:13:28;;;;;;;5.47;3.08;;;6.20;99.90;;;;;;6150800;23;20021;-73
2022/09/08 02:16:00;;;;;;;5.20;3.30;;;6.20;99.90;;;;;;6152720;23;20028;-74
2022/09/08 02:18:31;;;;;;;4.82;3.17;;;6.20;99.90;;;;;;6125403;23;20017;-73
2022/09/08 02:21:08;;;;;;;3.95;2.67;;;6.20;99.90;;;;;;6151811;23;20032;-74
2022/09/08 02:23:36;;;;;;;7.40;2.75;;;6.10;99.90;;;;;;6125503;23;20112;-73
2022/09/08 02:26:05;;;;;;;9.65;2.63;;;6.10;99.90;;;;;;6151467;23;20056;-73
2022/09/08 02:28:32;;;;;;;5.50;2.17;;;6.10;99.90;;;;;;6152943;23;20025;-72
2022/09/08 02:31:01;;;;;;;5.35;1.80;;;6.10;99.90;;;;;;6151865;23;20048;-73
2022/09/08 02:33:31;;;;;;;6.50;2.58;;;6.00;99.90;;;;;;6153362;23;20029;-73
2022/09/08 02:35:58;;;;;;;2.42;1.65;;;6.00;99.90;;;;;;6151493;23;20026;-73
2022/09/08 02:38:27;;;;;;;3.05;1.60;;;6.00;99.90;;;;;;6152879;23;20474;-73
2022/09/08 02:40:55;;;;;;;9.05;2.13;;;6.00;99.90;;;;;;6152132;23;20021;-73
2022/09/08 02:43:23;;;;;;;6.35;1.60;;;6.00;99.90;;;;;;6152770;23;20049;-73
2022/09/08 02:45:50;;;;;;;5.28;1.83;;;6.00;99.90;;;;;;6123919;23;20029;-73
2022/09/08 02:48:18;;;;;;;3.58;2.08;;;5.90;99.90;;;;;;6149937;23;20028;-73
2022/09/08 02:50:47;;;;;;;5.82;2.10;;;5.90;99.90;;;;;;6148364;23;20032;-73
2022/09/08 02:53:14;;;;;;;3.47;2.30;;;5.90;99.90;;;;;;6151289;23;20018;-73
2022/09/08 02:55:44;;;;;;;4.00;1.98;;;5.90;99.90;;;;;;6123007;23;20021;-73
2022/09/08 02:58:12;;;;;;;5.13;2.15;;;5.90;99.90;;;;;;6151049;23;20597;-74
2022/09/08 03:00:40;;;;;;;3.45;1.92;;;5.90;99.90;;;;;;6100079;23;20427;-73
2022/09/08 03:03:07;;;;;;;4.72;2.38;;;5.90;99.90;;;;;;6125384;23;20025;-73
2022/09/08 03:05:36;;;;;;;5.50;2.90;;;5.90;99.90;;;;;;6151961;23;20029;-73
2022/09/08 03:08:05;;;;;;;12.48;3.50;;;5.90;99.90;;;;;;6151814;23;20030;-74
2022/09/08 03:10:33;;;;;;;9.68;3.30;;;5.90;99.90;;;;;;6102705;23;20021;-73
2022/09/08 03:13:01;;;;;;;10.27;4.22;;;5.90;99.90;;;;;;6125149;23;20036;-73
2022/09/08 03:15:30;;;;;;;15.13;4.68;;;5.90;99.90;;;;;;6152762;23;20033;-73
2022/09/08 03:17:59;;;;;;;16.13;5.90;;;5.90;99.90;;;;;;6101828;23;20367;-74
2022/09/08 03:20:27;;;;;;;14.45;5.45;;;5.90;99.90;;;;;;6153720;23;20112;-72
2022/09/08 03:22:54;;;;;;;15.75;5.70;;;5.90;99.90;;;;;;6152683;23;20045;-72
2022/09/08 03:25:23;;;;;;;18.63;6.25;;;5.90;99.90;;;;;;6154993;23;20344;-72
2022/09/08 03:27:50;;;;;;;11.80;5.50;;;5.90;99.90;;;;;;6153014;23;20390;-72
2022/09/08 03:30:19;;;;;;;16.05;6.43;;;5.90;99.90;;;;;;6128508;23;20025;-72
2022/09/08 03:32:48;;;;;;;16.85;6.45;;;5.90;99.90;;;;;;6152988;23;20021;-72
2022/09/08 03:35:18;;;;;;;11.88;5.82;;;6.00;99.90;;;;;;6128294;23;20056;-73
2022/09/08 03:37:46;;;;;;;17.63;6.20;;;6.00;99.90;;;;;;6153997;23;20029;-72
2022/09/08 03:40:16;;;;;;;15.85;7.65;;;6.00;99.90;;;;;;6153601;23;20512;-73
2022/09/08 03:42:45;;;;;;;16.55;7.00;;;6.00;99.90;;;;;;6154452;23;20422;-74
2022/09/08 03:45:17;;;;;;;21.80;7.47;;;6.00;99.90;;;;;;6154688;23;20088;-74
2022/09/08 03:47:45;;;;;;;17.67;7.43;;;6.00;99.90;;;;;;6153219;23;20025;-74
2022/09/08 03:50:15;;;;;;;22.13;8.35;;;6.00;99.90;;;;;;6125406;23;20025;-73
2022/09/08 03:52:42;;;;;;;19.33;7.55;;;6.10;99.90;;;;;;6127375;23;20068;-74
2022/09/08 03:55:11;;;;;;;14.05;6.75;;;6.10;99.90;;;;;;6128049;23;20108;-74
2022/09/08 03:57:39;;;;;;;14.98;6.60;;;6.20;99.90;;;;;;6128388;23;20386;-74
2022/09/08 04:00:12;;;;;;;15.57;6.18;;;6.20;99.90;;;;;;6152975;23;20029;-74
2022/09/08 04:02:40;;;;;;;12.98;5.68;;;6.30;99.90;;;;;;6153879;23;20072;-72
2022/09/08 04:05:09;;;;;;;10.82;5.10;;;6.30;99.90;;;;;;6126863;23;20391;-72
2022/09/08 04:07:38;;;;;;;9.20;4.20;;;6.40;99.90;;;;;;6154160;23;20331;-73
2022/09/08 04:10:08;;;;;;;6.78;3.83;;;6.50;99.90;;;;;;6126602;23;20028;-75
2022/09/08 04:12:35;;;;;;;10.45;3.78;;;6.60;99.90;;;;;;6151741;23;20021;-73
2022/09/08 04:15:03;;;;;;;7.60;4.47;;;6.70;99.90;;;;;;6154543;23;20025;-76
2022/09/08 04:17:32;;;;;;;7.45;4.05;;;6.70;99.90;;;;;;6126797;23;20049;-78
2022/09/08 04:20:02;;;;;;;9.48;3.47;;;6.80;99.90;;;;;;6154631;23;20029;-79
2022/09/08 04:22:30;;;;;;;5.93;3.45;;;6.90;99.90;;;;;;6154661;23;20072;-78
2022/09/08 04:24:58;;;;;;;3.83;2.22;;;6.90;99.90;;;;;;6159332;23;20104;-80
2022/09/08 04:27:25;;;;;;;5.85;2.15;;;7.00;99.90;;;;;;6157139;23;20053;-80
2022/09/08 04:29:52;;;;;;;7.93;2.25;;;7.10;99.90;;;;;;6156222;23;20526;-81
2022/09/08 04:32:20;;;;;;;5.00;1.75;;;7.10;99.90;;;;;;6128227;23;20068;-81
2022/09/08 04:34:50;;;;;;;4.93;2.03;;;7.20;99.90;;;;;;6154977;23;20107;-80
2022/09/08 04:37:19;;;;;;;8.02;2.08;;;7.30;99.90;;;;;;6126544;23;20028;-79
2022/09/08 04:39:48;;;;;;;4.30;1.90;;;7.40;99.90;;;;;;6154624;23;20022;-79
2022/09/08 04:42:16;;;;;;;4.18;1.80;;;7.40;99.90;;;;;;6129660;23;20053;-79
2022/09/08 04:44:43;;;;;;;5.68;1.17;;;7.50;99.90;;;;;;6155207;23;20207;-79
2022/09/08 04:47:24;;;;;;;4.90;1.67;;;7.60;99.90;;;;;;6129415;23;20450;-79
2022/09/08 04:51:23;;;;;;;6.53;1.65;;;7.70;99.90;;;;;;6124582;23;20526;-79
2022/09/08 04:53:52;;;;;;;11.77;2.63;;;7.80;99.90;;;;;;6107818;23;20030;-74
2022/09/08 04:56:21;;;;;;;10.65;2.80;;;7.90;99.90;;;;;;6119998;23;20088;-80
2022/09/08 04:58:49;;;;;;;8.60;2.03;;;8.00;99.90;;;;;;6096498;23;20017;-80
2022/09/08 05:01:19;;;;;;;10.65;2.50;;;8.10;99.90;;;;;;6119330;23;20486;-77
2022/09/08 05:03:47;;;;;;;7.72;1.88;;;8.20;99.90;;;;;;6117041;23;20022;-77
2022/09/08 05:06:21;;;;;;;7.53;2.45;;;8.30;99.90;;;;;;6119556;23;20084;-77
2022/09/08 05:08:52;;;;;;;2.75;1.38;;;8.40;99.90;;;;;;6119430;23;20022;-76
2022/09/08 05:11:21;;;;;;;3.67;1.70;;;8.50;99.90;;;;;;6071254;23;20021;-79
2022/09/08 05:13:50;;;;;;;12.80;3.15;;;8.50;99.90;;;;;;6094583;23;20029;-77
2022/09/08 05:16:20;;;;;;;5.78;2.45;;;8.60;99.90;;;;;;6121085;23;20022;-76
2022/09/08 05:18:48;;;;;;;5.95;2.38;;;8.70;99.90;;;;;;6119625;23;20447;-73
2022/09/08 05:21:18;;;;;;;3.38;2.20;;;8.80;99.90;;;;;;6116646;23;20025;-73
2022/09/08 05:23:49;;;;;;;5.72;2.33;;;8.80;99.90;;;;;;6116553;23;20032;-73
2022/09/08 05:26:18;;;;;;;7.55;1.90;;;8.90;99.90;;;;;;6069233;23;20022;-73
2022/09/08 05:28:46;;;;;;;2.95;1.90;;;9.00;99.90;;;;;;6093816;23;20375;-78
2022/09/08 05:31:16;;;;;;;5.80;2.38;;;9.20;99.90;;;;;;6117764;23;20569;-75
2022/09/08 05:33:43;;;;;;;6.00;2.05;;;9.30;99.90;;;;;;6117603;23;20022;-77
2022/09/08 05:36:13;;;;;;;7.20;2.83;;;9.40;99.90;;;;;;6092082;23;20569;-77
2022/09/08 05:38:43;;;;;;;6.35;2.63;;;9.50;99.90;;;;;;6092982;23;20022;-77
2022/09/08 05:41:10;;;;;;;2.88;2.22;;;9.60;99.90;;;;;;6094940;23;20028;-77
2022/09/08 05:43:38;;;;;;;5.50;2.13;;;9.70;99.90;;;;;;6120966;23;20022;-77
2022/09/08 05:46:06;;;;;;;7.15;2.15;;;9.80;99.90;;;;;;6126065;23;20025;-78
2022/09/08 05:48:34;;;;;;;5.80;1.98;;;10.00;99.90;;;;;;6152982;23;20047;-78
2022/09/08 05:51:08;;;;;;;3.55;1.90;;;10.10;99.90;;;;;;6151319;23;20028;-77
2022/09/08 05:53:35;;;;;;;6.40;2.92;;;10.30;99.90;;;;;;6153700;23;20025;-78
2022/09/08 05:56:07;;;;;;;6.85;1.83;;;10.60;99.90;;;;;;6151607;23;20026;-77
2022/09/08 05:58:35;;;;;;;6.82;2.08;;;11.00;99.90;;;;;;6152857;23;20052;-78
2022/09/08 06:01:07;;;;;;;3.83;2.03;;;11.90;99.90;;;;;;6151834;23;20024;-79
2022/09/08 06:03:34;;;;;;;4.85;1.90;;;12.70;99.90;;;;;;6152838;23;20574;-73
2022/09/08 06:06:05;;;;;;;5.25;2.10;;;13.40;99.90;;;;;;6153066;23;20029;-73
2022/09/08 06:08:34;;;;;;;4.90;2.00;;;14.10;99.90;;;;;;6150774;23;20025;-74
2022/09/08 06:11:03;;;;;;;3.60;1.98;;;14.80;99.90;;;;;;6152535;23;20080;-73
2022/09/08 06:13:32;;;;;;;5.55;1.70;;;15.40;99.90;;;;;;6126966;23;20036;-73
2022/09/08 06:16:04;;;;;;;4.10;1.70;;;16.00;99.90;;;;;;6126238;23;20076;-72
2022/09/08 06:18:34;;;;;;;1.67;1.45;;;16.50;99.90;;;;;;6151990;23;20025;-78
2022/09/08 06:21:06;;;;;;;2.88;1.75;;;17.00;99.90;;;;;;6153213;23;20025;-78
2022/09/08 06:23:33;;;;;;;3.83;1.20;;;17.40;99.90;;;;;;6153471;23;20021;-78
2022/09/08 06:26:27;;;;;;;3.15;1.58;;;17.70;99.90;;;;;;6126945;23;20029;-72
2022/09/08 06:29:00;;;;;;;4.32;1.58;;;18.10;99.90;;;;;;6151404;23;20049;-78
2022/09/08 06:31:34;;;;;;;7.00;1.90;;;18.30;99.90;;;;;;6152534;23;20022;-77
2022/09/08 06:34:09;;;;;;;20.60;3.45;;;18.50;99.90;;;;;;6126405;23;20093;-72
2022/09/08 06:36:48;;;;;;;3.35;1.67;;;18.70;99.90;;;;;;6151452;23;20525;-73
2022/09/08 06:39:21;;;;;;;5.18;2.65;;;18.80;99.90;;;;;;6152718;23;20614;-78
2022/09/08 06:41:57;;;;;;;3.63;1.40;;;19.10;99.90;;;;;;6151862;23;20351;-78
2022/09/08 06:44:33;;;;;;;2.33;1.20;;;19.40;99.90;;;;;;6153429;23;20053;-72
2022/09/08 06:47:00;;;;;;;4.18;1.65;;;19.80;99.90;;;;;;6150724;23;20201;-73
2022/09/08 06:49:28;;;;;;;1.67;1.15;;;20.10;98.50;;;;;;6152796;23;20112;-79
2022/09/08 06:52:16;;;;;;;4.35;1.23;;;20.30;97.10;;;;;;6126522;23;20025;-79
2022/09/08 06:54:53;;;;;;;2.85;1.20;;;20.40;96.20;;;;;;6127050;23;20087;-76
2022/09/08 06:57:35;;;;;;;3.08;1.30;;;20.60;93.70;;;;;;6152698;23;20025;-72
2022/09/08 07:00:12;;;;;;;2.97;0.95;;;20.40;92.20;;;;;;6151666;23;20025;-72
2022/09/08 07:03:05;;;;;;;2.83;1.10;;;20.20;93.10;;;;;;6151433;23;20049;-73
2022/09/08 07:05:54;;;;;;;3.17;0.95;;;19.50;92.00;;;;;;6153927;23;20031;-71
2022/09/08 07:08:54;;;;;;;2.33;0.85;;;18.60;93.90;;;;;;6153642;23;20029;-73
2022/09/08 07:11:38;;;;;;;2.22;1.10;;;17.70;96.50;;;;;;6127312;23;20028;-73
2022/09/08 07:14:34;;;;;;;2.33;0.70;;;16.90;98.50;;;;;;6150810;23;20108;-70
2022/09/08 07:17:06;;;;;;;3.88;0.90;;;16.30;99.00;;;;;;6109076;23;20076;-72
2022/09/08 07:19:46;;;;;;;3.75;1.00;;;15.90;99.90;;;;;;6154532;23;20069;-71
2022/09/08 07:22:28;;;;;;;4.35;1.10;;;15.60;99.90;;;;;;6154980;23;20072;-71
2022/09/08 07:25:17;;;;;;;5.55;2.10;;;15.30;99.90;;;;;;6154601;23;20026;-71
2022/09/08 07:27:48;;;;;;;1.98;1.00;;;15.10;99.90;;;;;;6152905;23;20036;-71
2022/09/08 07:30:19;;;;;;;2.58;1.05;;;14.80;99.90;;;;;;6128565;23;20121;-71
2022/09/08 07:32:51;;;;;;;3.38;0.88;;;14.60;99.90;;;;;;6152871;23;20084;-71
2022/09/08 07:35:29;;;;;;;4.67;1.00;;;15.10;99.90;;;;;;6154958;23;20049;-71
2022/09/08 07:38:02;;;;;;;3.08;0.93;;;15.90;99.90;;;;;;6154829;23;20100;-71
2022/09/08 07:40:41;;;;;;;3.95;0.80;;;17.50;99.90;;;;;;6128394;23;20091;-71
2022/09/08 07:43:12;;;;;;;3.60;1.50;;;18.30;99.90;;;;;;6126639;23;20025;-71
2022/09/08 07:45:48;;;;;;;2.95;1.20;;;18.30;99.90;;;;;;6154075;23;20025;-71
2022/09/08 07:48:32;;;;;;;1.50;0.95;;;17.80;99.90;;;;;;6153467;23;20471;-71
2022/09/08 07:51:10;;;;;;;7.10;1.80;;;17.20;99.90;;;;;;6152695;23;20080;-72
2022/09/08 07:54:08;;;;;;;7.13;2.47;;;16.70;99.90;;;;;;6154520;23;20454;-72
2022/09/08 07:56:42;;;;;;;2.63;1.38;;;16.90;99.90;;;;;;6123197;23;20371;-72
2022/09/08 07:59:24;;;;;;;3.40;1.10;;;17.30;99.90;;;;;;6154453;23;20025;-73
2022/09/08 08:02:02;;;;;;;2.58;0.80;;;18.00;99.90;;;;;;6152895;23;20109;-72
2022/09/08 08:04:59;;;;;;;1.77;0.90;;;18.30;98.70;;;;;;6154343;23;20021;-71
2022/09/08 08:07:35;;;;;;;4.78;0.90;;;18.10;99.10;;;;;;6153473;23;20163;-72
2022/09/08 08:10:14;;;;;;;1.80;1.17;;;17.80;99.30;;;;;;6126710;23;20017;-72
2022/09/08 08:12:49;;;;;;;1.55;0.75;;;17.50;98.60;;;;;;6153886;23;20025;-72
2022/09/08 08:15:22;;;;;;;2.60;0.98;;;17.00;99.70;;;;;;6153051;23;20017;-72
2022/09/08 08:17:59;;;;;;;1.73;0.70;;;16.60;99.90;;;;;;6154150;23;20104;-71
2022/09/08 08:20:41;;;;;;;2.20;0.85;;;16.10;99.90;;;;;;6126852;23;20456;-70
2022/09/08 08:23:37;;;;;;;2.08;0.52;;;15.60;99.90;;;;;;6101714;23;20021;-72
2022/09/08 08:26:18;;;;;;;2.05;0.75;;;15.20;99.90;;;;;;6153739;23;20018;-72
2022/09/08 08:28:47;;;;;;;1.90;0.65;;;14.90;99.90;;;;;;6152270;23;20025;-73
2022/09/08 08:31:30;;;;;;;9.77;1.02;;;14.70;99.90;;;;;;6153782;23;20057;-72
2022/09/08 08:34:05;;;;;;;1.60;0.60;;;14.60;99.90;;;;;;6153690;23;20371;-71
2022/09/08 08:36:43;;;;;;;1.38;0.80;;;14.60;99.90;;;;;;6153391;23;20021;-72
2022/09/08 08:39:16;;;;;;;5.85;0.85;;;14.60;99.90;;;;;;6153935;23;20026;-71
2022/09/08 08:42:04;;;;;;;2.90;1.33;;;14.70;99.90;;;;;;6126172;23;20044;-71
2022/09/08 08:44:52;;;;;;;3.38;1.00;;;14.80;99.90;;;;;;6154288;23;20045;-71
2022/09/08 08:47:44;;;;;;;4.90;0.82;;;15.00;99.90;;;;;;6125172;23;20549;-71
2022/09/08 08:50:54;;;;;;;4.40;0.90;;;15.30;99.90;;;;;;6127824;23;20041;-70
2022/09/08 08:53:50;;;;;;;1.75;0.63;;;15.50;99.90;;;;;;6153938;23;20068;-70
2022/09/08 08:56:25;;;;;;;0.70;0.55;;;15.40;99.90;;;;;;6125162;23;20135;-71
2022/09/08 08:59:43;;;;;;;1.88;0.82;;;15.30;99.90;;;;;;6101664;23;20112;-71
2022/09/08 09:02:39;;;;;;;1.38;0.43;;;15.10;99.90;;;;;;6151977;23;20068;-77
2022/09/08 09:05:40;;;;;;;2.13;0.73;;;15.00;99.90;;;;;;6152718;23;20052;-76
2022/09/08 09:09:02;;;;;;;1.98;0.80;;;15.20;99.90;;;;;;6126514;23;20026;-76
2022/09/08 09:11:58;;;;;;;2.35;0.77;;;15.40;99.90;;;;;;6152905;23;20474;-72
2022/09/08 09:15:26;;;;;;;2.30;0.70;;;15.50;99.90;;;;;;6124879;23;20085;-72
2022/09/08 09:18:51;;;;;;;2.42;0.60;;;15.60;99.90;;;;;;6107570;23;20116;-72
2022/09/08 09:21:38;;;;;;;1.35;0.73;;;16.00;99.90;;;;;;6150619;23;20029;-72
2022/09/08 09:24:16;;;;;;;3.17;0.85;;;17.40;99.90;;;;;;6148861;23;20104;-72
2022/09/08 09:26:50;;;;;;;1.65;0.88;;;19.00;99.90;;;;;;6153067;23;20414;-72
2022/09/08 09:29:22;;;;;;;1.60;1.27;;;20.00;95.50;;;;;;6150493;23;20045;-71
2022/09/08 09:32:23;;;;;;;2.05;0.82;;;21.80;93.60;;;;;;6125630;23;20032;-72
2022/09/08 09:35:10;;;;;;;2.75;0.60;;;23.60;77.40;;;;;;6151972;23;20021;-71
2022/09/08 09:38:05;;;;;;;1.75;1.05;;;24.10;73.60;;;;;;6148908;23;20021;-71
2022/09/08 09:40:55;;;;;;;2.85;0.70;;;23.30;73.40;;;;;;6152536;23;20031;-77
2022/09/08 09:43:39;;;;;;;2.33;0.65;;;21.90;76.20;;;;;;6150904;23;20044;-77
2022/09/08 09:46:45;;;;;;;3.08;0.80;;;20.30;84.70;;;;;;6150145;23;20116;-77
2022/09/08 09:49:39;;;;;;;1.98;0.52;;;18.70;90.70;;;;;;6125608;23;20025;-77
2022/09/08 09:52:21;;;;;;;3.10;0.60;;;17.10;94.50;;;;;;6150462;23;20025;-77
2022/09/08 09:55:05;;;;;;;3.35;0.60;;;16.10;99.60;;;;;;6151600;23;20029;-76
2022/09/08 09:58:24;;;;;;;1.38;0.63;;;15.50;99.90;;;;;;6150528;23;20025;-78
2022/09/08 10:01:24;;;;;;;2.05;0.80;;;15.00;99.90;;;;;;6124189;23;20025;-75
2022/09/08 10:04:54;;;;;;;2.10;0.50;;;14.90;99.90;;;;;;6126230;23;20510;-79
2022/09/08 10:07:50;;;;;;;1.35;0.50;;;15.10;99.90;;;;;;6080403;23;20025;-76
2022/09/08 10:10:45;;;;;;;1.42;0.68;;;15.50;99.90;;;;;;6151019;23;20025;-78
2022/09/08 10:14:09;;;;;;;3.00;1.70;;;15.50;99.90;;;;;;6101596;23;20032;-78
2022/09/08 10:17:05;;;;;;;1.33;0.98;;;15.40;99.90;;;;;;6060038;23;20030;-78
2022/09/08 10:20:19;;;;;;;1.52;1.10;;;15.60;99.90;;;;;;6059639;23;20027;-78
2022/09/08 10:23:23;;;;;;;2.00;0.73;;;16.20;99.90;;;;;;6125758;23;20025;-78
2022/09/08 10:26:28;;;;;;;1.45;1.10;;;16.60;99.90;;;;;;6083368;23;20049;-78
2022/09/08 10:29:54;;;;;;;1.95;0.60;;;17.50;99.90;;;;;;6102117;23;20514;-79
2022/09/08 10:33:04;;;;;;;0.50;0.50;;;19.70;99.90;;;;;;6150632;23;20017;-78
2022/09/08 10:35:40;;;;;;;1.85;0.52;;;19.30;99.40;;;;;;6122279;23;20032;-80
2022/09/08 10:38:47;;;;;;;1.35;0.43;;;18.40;98.00;;;;;;6149938;23;20045;-78
2022/09/08 10:42:14;;;;;;;1.17;0.40;;;17.90;97.90;;;;;;6152058;23;20029;-79
2022/09/08 10:45:13;;;;;;;2.00;0.70;;;19.00;98.70;;;;;;6134461;23;20029;-77
2022/09/08 10:48:33;;;;;;;3.15;0.60;;;20.40;94.50;;;;;;6150126;23;20029;-79
2022/09/08 10:51:31;;;;;;;2.33;0.60;;;20.70;92.70;;;;;;6151301;23;20459;-79
2022/09/08 10:54:34;;;;;;;2.50;0.60;;;20.40;92.50;;;;;;6151296;23;20025;-77
2022/09/08 10:57:19;;;;;;;1.75;0.30;;;19.80;91.00;;;;;;6150203;23;20467;-80
2022/09/08 11:00:08;;;;;;;7.13;0.95;;;19.30;90.80;;;;;;6151160;23;20552;-80
2022/09/08 11:02:45;;;;;;;0.40;0.40;;;18.90;91.50;;;;;;6124720;23;20025;-75
2022/09/08 11:05:43;;;;;;;1.10;0.40;;;18.80;93.80;;;;;;6149907;23;20395;-79
2022/09/08 11:09:05;;;;;;;0.75;0.40;;;18.70;91.20;;;;;;6149290;23;20033;-78
2022/09/08 11:12:20;;;;;;;1.08;0.40;;;19.10;93.90;;;;;;6108523;23;20028;-80
2022/09/08 11:15:28;;;;;;;1.27;0.25;;;20.30;91.80;;;;;;6105403;23;20530;-80
2022/09/08 11:18:12;;;;;;;0.60;0.25;;;20.70;90.60;;;;;;6149939;23;20025;-80
2022/09/08 11:20:51;;;;;;;0.28;0.25;;;19.80;92.40;;;;;;6150807;23;20080;-78
2022/09/08 11:23:36;;;;;;;2.00;0.60;;;18.70;93.20;;;;;;6151064;23;20053;-78
2022/09/08 11:26:36;;;;;;;0.60;0.40;;;17.90;94.30;;;;;;6150169;23;20021;-79
2022/09/08 11:29:09;;;;;;;2.60;0.73;;;17.30;96.80;;;;;;6150151;23;20025;-80
2022/09/08 11:31:53;;;;;;;1.65;0.60;;;16.90;97.90;;;;;;6151427;23;20487;-78
2022/09/08 11:35:01;;;;;;;2.65;0.82;;;16.80;98.70;;;;;;6123540;23;20025;-79
2022/09/08 11:38:00;;;;;;;1.92;0.68;;;16.90;99.30;;;;;;6101031;23;20022;-73
2022/09/08 11:40:56;;;;;;;1.73;0.70;;;16.90;99.20;;;;;;6152782;23;20033;-75
2022/09/08 11:43:38;;;;;;;1.65;0.73;;;16.80;98.10;;;;;;6152285;23;20044;-72
2022/09/08 11:46:26;;;;;;;5.78;1.10;;;17.30;99.00;;;;;;6152755;23;20048;-77
2022/09/08 11:49:29;;;;;;;5.15;1.58;;;18.60;96.20;;;;;;6127118;23;20403;-71
2022/09/08 11:52:18;;;;;;;4.40;0.80;;;20.30;93.80;;;;;;6152359;23;20406;-73
2022/09/08 11:55:18;;;;;;;1.23;0.73;;;22.80;86.00;;;;;;6127893;23;20053;-77
2022/09/08 11:58:13;;;;;;;0.80;0.55;;;25.50;76.60;;;;;;6153411;23;20056;-73
2022/09/08 12:01:09;;;;;;;1.10;0.57;;;26.90;65.30;;;;;;6152646;23;20025;-78
2022/09/08 12:04:11;;;;;;;0.90;0.40;;;25.20;65.30;;;;;;6127194;23;20029;-78
2022/09/08 12:07:21;;;;;;;1.48;0.45;;;23.00;70.80;;;;;;6123388;23;20021;-80
2022/09/08 12:10:37;;;;;;;0.50;0.40;;;21.20;75.40;;;;;;6085045;23;20029;-80
2022/09/08 12:13:16;;;;;;;3.13;1.38;;;19.90;79.50;;;;;;6124528;23;20021;-80
2022/09/08 12:16:24;;;;;;;0.68;0.50;;;19.10;79.70;;;;;;6126355;23;20379;-78
2022/09/08 12:19:07;;;;;;;0.60;0.50;;;19.10;83.40;;;;;;6149486;23;20026;-77
2022/09/08 12:22:16;;;;;;;1.55;0.55;;;19.50;82.40;;;;;;6153073;23;20424;-77
2022/09/08 12:25:24;;;;;;;1.65;0.50;;;19.50;81.00;;;;;;6127203;23;20498;-76
2022/09/08 12:28:11;;;;;;;1.77;0.70;;;19.50;80.50;;;;;;6129773;23;20025;-74
2022/09/08 12:31:00;;;;;;;5.57;1.52;;;19.40;78.70;;;;;;6153585;23;20049;-76
2022/09/08 12:34:22;;;;;;;1.02;0.70;;;19.20;80.40;;;;;;6153191;23;20025;-76
2022/09/08 12:36:53;;;;;;;0.50;0.40;;;19.10;82.10;;;;;;6106193;23;20029;-75
2022/09/08 12:39:53;;;;;;;4.13;0.50;;;20.00;81.20;;;;;;6126117;23;20069;-76
2022/09/08 12:42:48;;;;;;;2.50;0.95;;;20.10;81.20;;;;;;6151548;23;20025;-71
2022/09/08 12:45:31;;;;;;;0.85;0.30;;;20.60;79.80;;;;;;6151013;23;20025;-73
2022/09/08 12:48:13;;;;;;;3.00;0.40;;;21.40;76.40;;;;;;6123470;23;20056;-71
2022/09/08 12:50:54;;;;;;;1.17;0.40;;;20.70;74.30;;;;;;6124332;23;20053;-76
2022/09/08 12:53:59;;;;;;;1.63;0.40;;;21.50;75.90;;;;;;6151251;23;20370;-77
2022/09/08 12:56:37;;;;;;;1.08;0.40;;;23.80;71.10;;;;;;6099481;23;20026;-76
2022/09/08 12:59:25;;;;;;;0.85;0.50;;;26.10;65.70;;;;;;6125115;23;20021;-77
2022/09/08 13:02:03;;;;;;;1.88;0.60;;;26.40;59.60;;;;;;6148995;23;20032;-73
2022/09/08 13:04:56;;;;;;;1.05;0.43;;;24.80;60.90;;;;;;6151906;23;20021;-77
2022/09/08 13:07:33;;;;;;;1.05;0.50;;;24.40;59.30;;;;;;6151526;23;20022;-77
2022/09/08 13:10:24;;;;;;;1.90;0.50;;;23.20;62.50;;;;;;6122903;23;20399;-71
2022/09/08 13:13:32;;;;;;;0.93;0.57;;;22.30;67.90;;;;;;6121209;23;20454;-71
2022/09/08 13:16:30;;;;;;;1.65;0.80;;;21.10;69.60;;;;;;6149548;23;20108;-71
2022/09/08 13:19:18;;;;;;;1.27;0.40;;;19.80;74.00;;;;;;6072912;23;20029;-77
2022/09/08 13:22:21;;;;;;;2.63;0.50;;;18.70;78.20;;;;;;6147069;23;20021;-77
2022/09/08 13:24:59;;;;;;;1.05;0.60;;;19.10;81.40;;;;;;6141881;23;20121;-77
2022/09/08 13:27:45;;;;;;;2.75;0.63;;;22.20;73.80;;;;;;6149544;23;20021;-78
2022/09/08 13:30:17;;;;;;;2.80;0.70;;;25.10;64.70;;;;;;6149153;23;20084;-77
2022/09/08 13:33:25;;;;;;;1.20;0.60;;;26.40;60.10;;;;;;6149868;23;20060;-70
2022/09/08 13:36:15;;;;;;;0.22;0.20;;;27.50;57.80;;;;;;6086245;23;20025;-73
2022/09/08 13:39:09;;;;;;;0.88;0.50;;;28.10;54.90;;;;;;6149815;23;20021;-73
2022/09/08 13:42:00;;;;;;;0.85;0.50;;;27.40;54.40;;;;;;6152215;23;20028;-73
2022/09/08 13:45:08;;;;;;;1.90;0.82;;;26.10;57.00;;;;;;6151268;23;20029;-73
2022/09/08 13:48:22;;;;;;;2.90;0.40;;;24.80;58.60;;;;;;6151267;23;20072;-74
2022/09/08 13:51:37;;;;;;;0.93;0.43;;;23.00;62.20;;;;;;6150896;23;20025;-74
2022/09/08 13:54:47;;;;;;;2.13;0.50;;;21.00;64.50;;;;;;6152984;23;20200;-74
2022/09/08 13:57:46;;;;;;;1.95;0.60;;;19.50;72.50;;;;;;6125694;23;20048;-73
2022/09/08 14:00:19;;;;;;;0.90;0.40;;;18.50;72.20;;;;;;6125584;23;20021;-73
2022/09/08 14:02:57;;;;;;;3.63;1.00;;;18.60;74.30;;;;;;6126856;23;20022;-74
2022/09/08 14:05:35;;;;;;;2.50;0.90;;;19.00;75.10;;;;;;6152438;23;20101;-73
2022/09/08 14:08:15;;;;;;;1.27;0.77;;;20.30;71.70;;;;;;6152259;23;20108;-73
2022/09/08 14:11:11;;;;;;;2.33;0.77;;;20.70;69.50;;;;;;6152666;23;20029;-73